createdAt,value
2022-10-06T00:01:41.023Z,90.29
2022-10-06T00:06:42.728Z,90.15
2022-10-06T00:11:44.374Z,90.24
2022-10-06T00:16:46.014Z,90.02
2022-10-06T00:21:47.686Z,89.86
2022-10-06T00:26:49.375Z,89.92
2022-10-06T00:31:51.034Z,90.06
2022-10-06T00:36:52.657Z,90.11
2022-10-06T00:41:54.347Z,89.82
2022-10-06T00:46:56.340Z,88.93
2022-10-06T00:52:07.113Z,89.00
2022-10-06T00:57:08.771Z,89.22
2022-10-06T01:02:14.835Z,98.63
2022-10-06T01:07:17.406Z,99.96
2022-10-06T01:12:19.089Z,100.00
2022-10-06T01:17:29.550Z,100.00
2022-10-06T01:22:31.069Z,100.00
2022-10-06T01:27:32.970Z,100.00
2022-10-06T01:32:36.749Z,100.00
2022-10-06T01:37:39.517Z,100.00
2022-10-06T01:42:41.234Z,100.00
2022-10-06T01:47:43.247Z,100.00
2022-10-06T01:52:45.237Z,100.00
2022-10-06T01:57:46.914Z,100.00
2022-10-06T02:02:50.668Z,98.86
2022-10-06T02:07:52.321Z,98.19
2022-10-06T02:12:54.283Z,98.20
2022-10-06T02:17:57.395Z,98.65
2022-10-06T02:23:01.825Z,98.47
2022-10-06T02:28:03.564Z,99.07
2022-10-06T02:33:07.539Z,99.12
2022-10-06T02:38:09.432Z,99.37
2022-10-06T02:43:11.757Z,100.00
2022-10-06T02:48:13.574Z,100.00
2022-10-06T02:53:15.310Z,100.00
2022-10-06T02:58:17.032Z,100.00
2022-10-06T03:03:18.859Z,100.00
2022-10-06T03:08:20.577Z,100.00
2022-10-06T03:13:22.321Z,100.00
2022-10-06T03:18:24.884Z,100.00
2022-10-06T03:23:26.742Z,100.00
2022-10-06T03:28:28.988Z,100.00
2022-10-06T03:33:31.672Z,100.00
2022-10-06T03:38:34.135Z,100.00
2022-10-06T03:43:36.624Z,100.00
2022-10-06T03:48:38.432Z,100.00
2022-10-06T03:53:45.027Z,100.00
2022-10-06T03:58:49.986Z,100.00
2022-10-06T04:03:54.104Z,100.00
2022-10-06T04:08:55.943Z,100.00
2022-10-06T04:14:00.449Z,100.00
2022-10-06T04:19:07.482Z,100.00
2022-10-06T04:24:10.586Z,100.00
2022-10-06T04:29:14.823Z,100.00
2022-10-06T04:34:17.360Z,100.00
2022-10-06T04:39:20.490Z,100.00
2022-10-06T04:44:22.501Z,100.00
2022-10-06T04:49:24.862Z,100.00
2022-10-06T04:54:33.412Z,100.00
2022-10-06T04:59:54.629Z,100.00
2022-10-06T05:04:58.195Z,100.00
2022-10-06T05:10:00.386Z,100.00
2022-10-06T05:15:02.237Z,100.00
2022-10-06T05:20:04.449Z,100.00
2022-10-06T05:25:06.653Z,100.00
2022-10-06T05:30:09.855Z,100.00
2022-10-06T05:35:12.332Z,100.00
2022-10-06T05:40:14.189Z,100.00
2022-10-06T05:45:15.976Z,100.00
2022-10-06T05:50:19.522Z,99.47
2022-10-06T05:55:22.819Z,99.97
2022-10-06T06:00:24.640Z,99.30
2022-10-06T06:05:26.462Z,98.90
2022-10-06T06:10:28.265Z,98.63
2022-10-06T06:15:48.463Z,97.84
2022-10-06T06:21:00.981Z,97.62
2022-10-06T06:26:04.816Z,97.96
2022-10-06T06:31:20.148Z,98.10
2022-10-06T06:36:29.790Z,96.41
2022-10-06T06:41:32.860Z,96.55
2022-10-06T06:46:43.031Z,95.48
2022-10-06T06:51:49.884Z,94.12
2022-10-06T06:56:55.210Z,92.79
2022-10-06T07:01:57.639Z,93.25
2022-10-06T07:07:00.410Z,92.52
2022-10-06T07:12:11.378Z,92.73
2022-10-06T07:17:33.932Z,92.12
2022-10-06T07:22:54.366Z,91.56
2022-10-06T07:27:57.215Z,89.85
2022-10-06T07:33:05.069Z,89.73
2022-10-06T07:38:08.594Z,89.19
2022-10-06T07:43:22.977Z,88.85
2022-10-06T07:48:26.161Z,88.40
2022-10-06T07:53:37.540Z,86.94
2022-10-06T07:58:51.949Z,86.69
2022-10-06T08:03:53.636Z,85.99
2022-10-06T08:08:56.485Z,85.82
2022-10-06T08:13:58.349Z,85.04
2022-10-06T08:19:00.232Z,84.43
2022-10-06T08:24:02.080Z,85.22
2022-10-06T08:29:03.833Z,83.44
2022-10-06T08:34:11.836Z,83.71
2022-10-06T08:39:13.862Z,83.13
2022-10-06T08:44:19.146Z,83.71
2022-10-06T08:49:22.035Z,81.66
2022-10-06T08:54:29.850Z,80.24
2022-10-06T08:59:37.644Z,79.58
2022-10-06T09:04:39.281Z,80.17
2022-10-06T09:09:46.801Z,77.60
2022-10-06T09:15:04.530Z,75.51
2022-10-06T09:20:19.214Z,74.87
2022-10-06T09:25:22.135Z,75.26
2022-10-06T09:30:24.082Z,74.28
2022-10-06T09:35:27.456Z,72.50
2022-10-06T09:40:54.530Z,71.91
2022-10-06T09:45:57.312Z,72.19
2022-10-06T09:51:17.834Z,70.73
2022-10-06T09:56:19.760Z,69.08
2022-10-06T10:01:23.961Z,66.65
2022-10-06T10:06:35.078Z,66.23
2022-10-06T10:11:55.129Z,66.08
2022-10-06T10:16:56.802Z,65.59
2022-10-06T10:21:59.661Z,66.23
2022-10-06T10:27:26.303Z,66.80
2022-10-06T10:32:36.134Z,67.33
2022-10-06T10:37:42.943Z,66.27
2022-10-06T10:42:51.715Z,66.01
2022-10-06T10:47:53.498Z,67.63
2022-10-06T10:53:02.073Z,66.86
2022-10-06T10:58:33.782Z,66.29
2022-10-06T11:03:35.461Z,66.67
2022-10-06T11:08:43.116Z,66.15
2022-10-06T11:13:48.839Z,64.83
2022-10-06T11:19:09.257Z,64.91
2022-10-06T11:24:15.482Z,63.98
2022-10-06T11:29:54.425Z,61.52
2022-10-06T11:34:56.236Z,62.33
2022-10-06T11:40:02.336Z,63.05
2022-10-06T11:45:15.160Z,59.47
2022-10-06T11:50:37.623Z,59.46
2022-10-06T11:55:39.374Z,59.92
2022-10-06T12:00:43.053Z,60.03
2022-10-06T12:06:00.210Z,56.79
2022-10-06T12:11:01.842Z,55.25
2022-10-06T12:22:06.500Z,53.65
2022-10-06T12:27:44.788Z,53.17
2022-10-06T12:32:57.368Z,52.62
2022-10-06T12:38:04.631Z,51.93
2022-10-06T12:43:12.464Z,50.98
2022-10-06T12:48:26.841Z,51.68
2022-10-06T12:53:32.755Z,51.34
2022-10-06T12:58:34.412Z,49.56
2022-10-06T13:03:36.035Z,49.32
2022-10-06T13:08:38.358Z,49.23
2022-10-06T13:13:52.717Z,49.80
2022-10-06T13:18:55.565Z,50.50
2022-10-06T13:23:57.250Z,51.03
2022-10-06T13:28:59.312Z,50.79
2022-10-06T13:34:11.437Z,50.10
2022-10-06T13:39:17.770Z,48.45
2022-10-06T13:44:19.244Z,49.31
2022-10-06T13:49:40.801Z,50.53
2022-10-06T13:54:53.298Z,49.58
2022-10-06T14:00:14.255Z,49.66
2022-10-06T14:05:29.784Z,50.20
2022-10-06T14:10:40.370Z,48.97
2022-10-06T14:15:49.341Z,47.61
2022-10-06T14:20:53.347Z,47.48
2022-10-06T14:25:54.998Z,47.55
2022-10-06T14:30:57.414Z,47.91
2022-10-06T14:35:59.113Z,49.43
2022-10-06T14:41:01.986Z,50.36
2022-10-06T14:46:06.410Z,50.81
2022-10-06T14:51:09.167Z,51.59
2022-10-06T14:56:13.798Z,51.46
2022-10-06T15:01:17.204Z,51.43
2022-10-06T15:06:37.682Z,50.64
2022-10-06T15:11:39.614Z,51.38
2022-10-06T15:16:42.411Z,51.38
2022-10-06T15:21:47.028Z,51.77
2022-10-06T15:27:07.403Z,52.11
2022-10-06T15:32:09.485Z,52.33
2022-10-06T15:37:11.155Z,51.83
2022-10-06T15:42:15.361Z,52.66
2022-10-06T15:47:17.176Z,51.89
2022-10-06T15:52:18.892Z,52.05
2022-10-06T15:57:21.565Z,52.84
2022-10-06T16:02:23.409Z,53.67
2022-10-06T16:07:25.152Z,53.96
2022-10-06T16:12:28.529Z,55.17
2022-10-06T16:17:30.411Z,55.42
2022-10-06T16:22:32.093Z,56.30
2022-10-06T16:27:35.211Z,57.37
2022-10-06T16:32:37.116Z,58.28
2022-10-06T16:37:38.975Z,58.66
2022-10-06T16:42:43.288Z,59.58
2022-10-06T16:47:45.041Z,60.58
2022-10-06T16:52:46.711Z,60.90
2022-10-06T16:57:48.460Z,61.47
2022-10-06T17:02:50.193Z,62.08
2022-10-06T17:07:54.536Z,62.40
2022-10-06T17:13:00.312Z,63.17
2022-10-06T17:18:02.088Z,64.80
2022-10-06T17:23:03.751Z,64.95
2022-10-06T17:28:05.955Z,66.24
2022-10-06T17:33:07.647Z,67.52
2022-10-06T17:38:09.635Z,68.51
2022-10-06T17:43:11.349Z,69.58
2022-10-06T17:48:14.199Z,70.28
2022-10-06T17:53:15.839Z,71.86
2022-10-06T17:58:18.842Z,72.84
2022-10-06T18:03:26.332Z,73.41
2022-10-06T18:08:28.066Z,73.90
2022-10-06T18:13:31.446Z,74.58
2022-10-06T18:18:33.315Z,75.78
2022-10-06T18:23:36.210Z,76.07
2022-10-06T18:28:39.124Z,75.96
2022-10-06T18:36:10.405Z,76.57
2022-10-06T18:39:03.896Z,77.25
2022-10-06T18:44:05.594Z,77.76
2022-10-06T18:49:12.437Z,78.04
2022-10-06T18:54:16.375Z,78.75
2022-10-06T18:59:19.867Z,79.84
2022-10-06T19:04:22.257Z,80.65
2022-10-06T19:09:24.527Z,80.83
2022-10-06T19:14:36.766Z,82.01
2022-10-06T19:19:38.403Z,82.01
2022-10-06T19:24:41.547Z,82.25
2022-10-06T19:29:45.987Z,82.60
2022-10-06T19:34:48.360Z,82.04
2022-10-06T19:39:50.157Z,82.59
2022-10-06T19:44:52.044Z,83.21
2022-10-06T19:50:00.818Z,84.31
2022-10-06T19:55:04.942Z,85.30
2022-10-06T20:00:07.266Z,85.41
2022-10-06T20:05:15.486Z,85.69
2022-10-06T20:10:17.154Z,86.14
2022-10-06T20:15:19.711Z,86.57
2022-10-06T20:20:21.325Z,86.38
2022-10-06T20:25:22.962Z,86.91
2022-10-06T20:30:24.719Z,88.10
2022-10-06T20:35:26.346Z,88.14
2022-10-06T20:40:42.640Z,88.24
2022-10-06T20:45:44.302Z,88.82
2022-10-06T20:50:46.020Z,88.73
2022-10-06T20:55:51.739Z,89.02
2022-10-06T21:00:53.605Z,89.72
2022-10-06T21:05:55.492Z,89.99
2022-10-06T21:10:58.199Z,89.97
2022-10-06T21:16:00.250Z,90.15
2022-10-06T21:21:04.934Z,90.35
2022-10-06T21:26:07.432Z,90.50
2022-10-06T21:31:12.497Z,90.44
2022-10-06T21:36:23.675Z,90.34
2022-10-06T21:41:31.527Z,90.97
2022-10-06T21:46:37.197Z,91.39
2022-10-06T21:51:39.250Z,91.35
2022-10-06T21:56:41.122Z,91.42
2022-10-06T22:01:44.285Z,91.72
2022-10-06T22:06:49.963Z,92.42
2022-10-06T22:11:51.890Z,92.55
2022-10-06T22:16:53.746Z,92.71
2022-10-06T22:21:55.535Z,93.30
2022-10-06T22:26:58.956Z,93.11
2022-10-06T22:32:00.808Z,93.88
2022-10-06T22:37:02.745Z,93.56
2022-10-06T22:42:04.566Z,93.93
2022-10-06T22:47:06.404Z,94.43
2022-10-06T22:52:08.220Z,94.84
2022-10-06T22:57:10.203Z,95.44
2022-10-06T23:02:12.039Z,95.91
2022-10-06T23:07:13.804Z,96.08
2022-10-06T23:12:15.614Z,95.86
2022-10-06T23:17:17.411Z,94.91
2022-10-06T23:22:19.186Z,95.57
2022-10-06T23:27:21.083Z,95.44
2022-10-06T23:32:22.863Z,95.69
2022-10-06T23:37:24.710Z,96.38
2022-10-06T23:42:26.497Z,97.69
2022-10-06T23:47:28.279Z,98.95
2022-10-06T23:52:30.057Z,98.97
2022-10-06T23:57:31.909Z,98.52
